Time;durP1;ratioP1;P1;durP2;ratioP2;P2;SDS_P1;SDS_P2;PMS_P1;PMS_P2;Temp;Humidity;BMP_temperature;BMP_pressure;BME280_temperature;BME280_humidity;BME280_pressure;Samples;Min_cycle;Max_cycle;Signal;HPM_P1;HPM_P2
2023/08/14 00:00:01;;;;;;;2.15;1.15;;;16.90;99.90;;;;;;4988588;28;20045;-75
2023/08/14 00:02:27;;;;;;;3.22;1.33;;;16.90;99.90;;;;;;5016983;28;20037;-76
2023/08/14 00:04:54;;;;;;;1.83;1.10;;;16.80;99.90;;;;;;5013890;28;20036;-75
2023/08/14 00:07:20;;;;;;;2.00;1.08;;;16.80;99.90;;;;;;5012421;28;20033;-75
2023/08/14 00:09:46;;;;;;;2.85;1.40;;;16.80;99.90;;;;;;5012957;28;20025;-74
2023/08/14 00:12:13;;;;;;;2.97;0.95;;;16.80;99.90;;;;;;5011862;28;20037;-74
2023/08/14 00:14:39;;;;;;;3.55;0.93;;;16.80;99.90;;;;;;4991585;28;20033;-74
2023/08/14 00:17:05;;;;;;;2.58;1.02;;;16.80;99.90;;;;;;5017369;28;20630;-75
2023/08/14 00:19:32;;;;;;;2.90;1.30;;;16.80;99.90;;;;;;5019824;28;20053;-75
2023/08/14 00:21:58;;;;;;;3.85;1.33;;;16.80;99.90;;;;;;5018939;28;20037;-75
2023/08/14 00:24:24;;;;;;;3.17;1.70;;;16.80;99.90;;;;;;5010957;28;20052;-75
2023/08/14 00:26:51;;;;;;;3.70;1.52;;;16.70;99.90;;;;;;4988622;28;20452;-74
2023/08/14 00:29:17;;;;;;;2.95;1.45;;;16.80;99.90;;;;;;4994111;28;20039;-75
2023/08/14 00:31:43;;;;;;;4.20;1.90;;;16.70;99.90;;;;;;4993525;28;20053;-75
2023/08/14 00:34:10;;;;;;;5.28;2.78;;;16.70;99.90;;;;;;5013754;28;20044;-75
2023/08/14 00:36:37;;;;;;;4.30;1.63;;;16.70;99.90;;;;;;5001322;28;20059;-75
2023/08/14 00:39:03;;;;;;;2.00;1.30;;;16.60;99.90;;;;;;5019474;28;20037;-75
2023/08/14 00:41:30;;;;;;;2.72;1.48;;;16.60;99.90;;;;;;5018417;28;20033;-75
2023/08/14 00:43:57;;;;;;;2.65;1.00;;;16.60;99.90;;;;;;4995813;28;20486;-75
2023/08/14 00:46:24;;;;;;;2.72;1.13;;;16.60;99.90;;;;;;4994518;28;20044;-75
2023/08/14 00:48:52;;;;;;;2.58;1.23;;;16.50;99.90;;;;;;5023854;28;20028;-75
2023/08/14 00:51:21;;;;;;;4.00;1.40;;;16.50;99.90;;;;;;5010881;28;20403;-75
2023/08/14 00:53:49;;;;;;;2.38;1.40;;;16.50;99.90;;;;;;5013489;28;20037;-75
2023/08/14 00:56:16;;;;;;;1.73;1.13;;;16.50;99.90;;;;;;4996628;28;21469;-74
2023/08/14 00:58:43;;;;;;;2.35;1.30;;;16.40;99.90;;;;;;5012415;28;20040;-74
2023/08/14 01:01:09;;;;;;;2.83;1.48;;;16.40;99.90;;;;;;4993586;28;20045;-76
2023/08/14 01:03:37;;;;;;;2.90;1.52;;;16.40;99.90;;;;;;5017037;28;20037;-76
2023/08/14 01:06:03;;;;;;;3.50;1.08;;;16.30;99.90;;;;;;5018553;28;20047;-74
2023/08/14 01:08:30;;;;;;;2.95;1.40;;;16.40;99.90;;;;;;5018265;28;20395;-74
2023/08/14 01:10:59;;;;;;;3.28;1.30;;;16.30;99.90;;;;;;5010495;28;20494;-76
2023/08/14 01:13:48;;;;;;;3.45;1.48;;;16.30;99.90;;;;;;5012509;28;20106;-75
2023/08/14 01:16:23;;;;;;;2.50;1.30;;;16.30;99.90;;;;;;5012057;28;20040;-75
2023/08/14 01:18:52;;;;;;;3.63;1.45;;;16.30;99.90;;;;;;5007671;28;20052;-74
2023/08/14 01:21:35;;;;;;;2.65;1.50;;;16.30;99.90;;;;;;4991568;28;20844;-74
2023/08/14 01:24:58;;;;;;;5.00;1.63;;;16.30;99.90;;;;;;4997859;28;22430;-76
2023/08/14 01:27:25;;;;;;;3.55;1.92;;;16.30;99.90;;;;;;4988099;28;20129;-75
2023/08/14 01:30:00;;;;;;;2.20;1.50;;;16.20;99.90;;;;;;5005099;28;20036;-75
2023/08/14 01:32:26;;;;;;;4.07;1.85;;;16.20;99.90;;;;;;5011802;28;20032;-76
2023/08/14 01:34:54;;;;;;;4.05;2.03;;;16.20;99.90;;;;;;4998965;28;20037;-74
2023/08/14 01:37:42;;;;;;;4.60;1.90;;;16.10;99.90;;;;;;5025334;28;20033;-74
2023/08/14 01:40:25;;;;;;;4.25;1.98;;;16.10;99.90;;;;;;5015846;28;20041;-75
2023/08/14 01:42:59;;;;;;;3.65;1.65;;;16.10;99.90;;;;;;4994740;28;20029;-76
2023/08/14 01:45:28;;;;;;;2.65;1.60;;;16.00;99.90;;;;;;4999153;28;20044;-75
2023/08/14 01:47:57;;;;;;;2.15;1.38;;;16.00;99.90;;;;;;5021512;28;20044;-76
2023/08/14 01:50:27;;;;;;;2.83;1.48;;;15.90;99.90;;;;;;5024180;28;20058;-74
2023/08/14 01:52:55;;;;;;;2.28;1.33;;;15.90;99.90;;;;;;4988758;28;20060;-76
2023/08/14 01:55:25;;;;;;;3.55;2.17;;;15.90;99.90;;;;;;5015223;28;20043;-75
2023/08/14 01:57:53;;;;;;;2.88;1.80;;;15.90;99.90;;;;;;4998808;28;20381;-74
2023/08/14 02:00:20;;;;;;;3.58;1.98;;;15.90;99.90;;;;;;4998709;28;20040;-75
2023/08/14 02:02:47;;;;;;;2.85;1.58;;;15.90;99.90;;;;;;5015615;28;20037;-75
2023/08/14 02:05:14;;;;;;;3.92;1.63;;;15.80;99.90;;;;;;4996170;28;20048;-74
2023/08/14 02:07:41;;;;;;;3.58;2.75;;;15.80;99.90;;;;;;5018675;28;20047;-75
2023/08/14 02:10:09;;;;;;;4.70;3.28;;;15.80;99.90;;;;;;5023020;28;20381;-75
2023/08/14 02:12:36;;;;;;;3.95;2.22;;;15.80;99.90;;;;;;5019315;28;20408;-75
2023/08/14 02:15:07;;;;;;;3.53;2.25;;;15.80;99.90;;;;;;5014813;28;20047;-74
2023/08/14 02:17:34;;;;;;;2.42;1.70;;;15.80;99.90;;;;;;5013439;28;20040;-75
2023/08/14 02:20:00;;;;;;;2.95;2.13;;;15.80;99.90;;;;;;4980619;28;20037;-74
2023/08/14 02:22:27;;;;;;;3.15;2.28;;;15.70;99.90;;;;;;5014552;28;20388;-75
2023/08/14 02:24:53;;;;;;;3.83;2.10;;;15.70;99.90;;;;;;4996142;28;20028;-75
2023/08/14 02:27:19;;;;;;;2.50;1.67;;;15.70;99.90;;;;;;5015361;28;20048;-75
2023/08/14 02:29:46;;;;;;;4.45;2.20;;;15.70;99.90;;;;;;5022829;28;20032;-75
2023/08/14 02:32:13;;;;;;;3.15;1.48;;;15.70;99.90;;;;;;5021504;28;20040;-75
2023/08/14 02:34:43;;;;;;;2.13;1.45;;;15.60;99.90;;;;;;5020163;28;20033;-75
2023/08/14 02:37:12;;;;;;;3.33;2.10;;;15.60;99.90;;;;;;5013302;28;20029;-75
2023/08/14 02:39:38;;;;;;;4.22;2.05;;;15.60;99.90;;;;;;5008658;28;20100;-75
2023/08/14 02:42:06;;;;;;;2.90;2.20;;;15.60;99.90;;;;;;5012364;28;20044;-75
2023/08/14 02:44:34;;;;;;;3.92;1.77;;;15.50;99.90;;;;;;4995243;28;22526;-76
2023/08/14 02:47:01;;;;;;;2.88;2.03;;;15.50;99.90;;;;;;5012671;28;20052;-75
2023/08/14 02:49:28;;;;;;;4.00;1.90;;;15.50;99.90;;;;;;5003238;28;20032;-75
2023/08/14 02:51:54;;;;;;;2.70;1.88;;;15.50;99.90;;;;;;5008076;28;20343;-75
2023/08/14 02:54:21;;;;;;;3.33;2.03;;;15.60;99.90;;;;;;5020295;28;20596;-76
2023/08/14 02:56:48;;;;;;;2.85;1.92;;;15.60;99.90;;;;;;4996873;28;20056;-76
2023/08/14 02:59:15;;;;;;;4.63;1.88;;;15.50;99.90;;;;;;5013027;28;20043;-75
2023/08/14 03:01:41;;;;;;;3.70;2.40;;;15.50;99.90;;;;;;4995700;28;20041;-76
2023/08/14 03:04:08;;;;;;;2.55;1.88;;;15.50;99.90;;;;;;4996851;28;20029;-77
2023/08/14 03:06:34;;;;;;;3.22;2.15;;;15.50;99.90;;;;;;5012687;28;20045;-75
2023/08/14 03:09:02;;;;;;;3.60;1.92;;;15.50;99.90;;;;;;5013477;28;20033;-74
2023/08/14 03:11:28;;;;;;;4.25;2.45;;;15.50;99.90;;;;;;5017579;28;20037;-76
2023/08/14 03:13:54;;;;;;;3.58;2.75;;;15.50;99.90;;;;;;5022686;28;20037;-76
2023/08/14 03:16:21;;;;;;;5.05;2.45;;;15.50;99.90;;;;;;5018947;28;20064;-75
2023/08/14 03:18:47;;;;;;;2.95;2.00;;;15.50;99.90;;;;;;5010926;28;20487;-74
2023/08/14 03:21:14;;;;;;;3.08;2.17;;;15.50;99.90;;;;;;5012099;28;20037;-75
2023/08/14 03:23:40;;;;;;;3.78;1.90;;;15.40;99.90;;;;;;4990870;28;20044;-76
2023/08/14 03:26:08;;;;;;;3.28;1.92;;;15.40;99.90;;;;;;5000328;28;20033;-75
2023/08/14 03:28:34;;;;;;;2.60;1.98;;;15.40;99.90;;;;;;5024432;28;22993;-75
2023/08/14 03:31:01;;;;;;;3.80;1.80;;;15.40;99.90;;;;;;5021955;28;20037;-76
2023/08/14 03:33:28;;;;;;;3.22;2.03;;;15.40;99.90;;;;;;5004611;28;20112;-76
2023/08/14 03:35:55;;;;;;;2.60;2.17;;;15.40;99.90;;;;;;5003916;28;20033;-73
2023/08/14 03:38:22;;;;;;;2.70;1.85;;;15.40;99.90;;;;;;5009900;28;20437;-73
2023/08/14 03:40:48;;;;;;;3.38;2.33;;;15.40;99.90;;;;;;5010620;28;20044;-72
2023/08/14 03:43:14;;;;;;;4.15;2.40;;;15.40;99.90;;;;;;5009958;28;20029;-76
2023/08/14 03:45:41;;;;;;;4.35;2.72;;;15.40;99.90;;;;;;5012911;28;20048;-75
2023/08/14 03:48:07;;;;;;;3.63;2.35;;;15.40;99.90;;;;;;4979144;28;20507;-75
2023/08/14 03:50:34;;;;;;;3.67;2.72;;;15.40;99.90;;;;;;5013317;28;20041;-75
2023/08/14 03:53:00;;;;;;;3.42;2.10;;;15.40;99.90;;;;;;4984611;28;20040;-75
2023/08/14 03:55:27;;;;;;;3.10;2.25;;;15.40;99.90;;;;;;5003311;28;20047;-75
2023/08/14 03:57:56;;;;;;;3.15;2.05;;;15.40;99.90;;;;;;5017598;28;20443;-76
2023/08/14 04:00:22;;;;;;;4.38;3.30;;;15.40;99.90;;;;;;5010676;28;20484;-75
2023/08/14 04:02:49;;;;;;;5.40;2.90;;;15.40;99.90;;;;;;5010230;28;20033;-75
2023/08/14 04:05:16;;;;;;;4.63;2.88;;;15.40;99.90;;;;;;5007301;28;20286;-74
2023/08/14 04:07:42;;;;;;;4.18;3.08;;;15.40;99.90;;;;;;5009664;28;20041;-75
2023/08/14 04:10:09;;;;;;;3.78;2.88;;;15.40;99.90;;;;;;5011057;28;20037;-75
2023/08/14 04:12:35;;;;;;;3.30;2.40;;;15.40;99.90;;;;;;5016753;28;20028;-76
2023/08/14 04:15:13;;;;;;;4.13;2.90;;;15.40;99.90;;;;;;5017320;28;20032;-75
2023/08/14 04:17:39;;;;;;;5.63;2.03;;;15.40;99.90;;;;;;5004334;28;20459;-74
2023/08/14 04:20:06;;;;;;;4.10;2.78;;;15.40;99.90;;;;;;4992689;28;20049;-74
2023/08/14 04:22:33;;;;;;;4.72;2.97;;;15.30;99.90;;;;;;5012813;28;20483;-75
2023/08/14 04:24:59;;;;;;;3.97;2.83;;;15.40;99.90;;;;;;5011537;28;20941;-75
2023/08/14 04:27:26;;;;;;;5.85;3.28;;;15.40;99.90;;;;;;5012196;28;20028;-74
2023/08/14 04:29:53;;;;;;;3.17;2.70;;;15.30;99.90;;;;;;5010800;28;20041;-75
2023/08/14 04:32:20;;;;;;;3.88;3.00;;;15.40;99.90;;;;;;5015683;28;20032;-75
2023/08/14 04:34:47;;;;;;;4.18;3.55;;;15.30;99.90;;;;;;5019751;28;20021;-76
2023/08/14 04:37:13;;;;;;;3.85;3.08;;;15.40;99.90;;;;;;5021656;28;20288;-75
2023/08/14 04:39:39;;;;;;;3.38;2.60;;;15.30;99.90;;;;;;5011909;28;20033;-75
2023/08/14 04:42:06;;;;;;;7.05;3.60;;;15.40;99.90;;;;;;5010956;28;20033;-75
2023/08/14 04:44:32;;;;;;;6.32;4.15;;;15.40;99.90;;;;;;4972854;28;20040;-75
2023/08/14 04:46:59;;;;;;;3.85;3.22;;;15.50;99.90;;;;;;5010141;28;20048;-75
2023/08/14 04:49:25;;;;;;;5.93;3.30;;;15.50;99.90;;;;;;5006914;28;20044;-76
2023/08/14 04:51:52;;;;;;;5.15;3.42;;;15.50;99.90;;;;;;5009348;28;20029;-76
2023/08/14 04:54:18;;;;;;;4.82;3.55;;;15.60;99.90;;;;;;5018843;28;20478;-76
2023/08/14 04:56:45;;;;;;;5.53;4.03;;;15.70;99.90;;;;;;5004370;28;20041;-75
2023/08/14 04:59:11;;;;;;;4.18;3.30;;;15.80;99.90;;;;;;5013394;28;20060;-74
2023/08/14 05:01:38;;;;;;;4.75;3.58;;;15.90;99.90;;;;;;5007489;28;20045;-75
2023/08/14 05:04:05;;;;;;;6.50;3.70;;;16.00;99.90;;;;;;4978387;28;20033;-75
2023/08/14 05:06:31;;;;;;;4.85;4.15;;;16.00;99.90;;;;;;5010006;28;20503;-75
2023/08/14 05:08:58;;;;;;;4.72;4.30;;;16.20;99.90;;;;;;4991821;28;20040;-75
2023/08/14 05:11:25;;;;;;;5.30;4.35;;;16.40;99.90;;;;;;4992583;28;20730;-75
2023/08/14 05:13:51;;;;;;;5.28;3.75;;;16.60;99.90;;;;;;5013414;28;20041;-76
2023/08/14 05:16:19;;;;;;;5.65;4.63;;;16.70;99.90;;;;;;5007568;28;20037;-76
2023/08/14 05:18:46;;;;;;;4.65;4.03;;;16.70;99.90;;;;;;5006762;28;20048;-76
2023/08/14 05:21:12;;;;;;;4.30;3.90;;;16.80;99.90;;;;;;5012894;28;20036;-76
2023/08/14 05:23:38;;;;;;;4.82;3.90;;;16.90;99.90;;;;;;5012686;28;20037;-76
2023/08/14 05:26:05;;;;;;;5.93;4.50;;;16.90;99.90;;;;;;5013332;28;20041;-75
2023/08/14 05:28:31;;;;;;;5.15;4.07;;;17.00;99.90;;;;;;4996077;28;20434;-74
2023/08/14 05:30:58;;;;;;;4.13;3.70;;;17.10;99.90;;;;;;4996156;28;20033;-76
2023/08/14 05:33:24;;;;;;;6.43;5.03;;;17.20;99.90;;;;;;4995399;28;20036;-76
2023/08/14 05:35:51;;;;;;;5.10;3.90;;;17.30;99.90;;;;;;5023355;28;20511;-76
2023/08/14 05:38:17;;;;;;;5.00;4.55;;;17.40;99.90;;;;;;5036282;28;20029;-75
2023/08/14 05:40:43;;;;;;;6.43;4.68;;;17.40;99.90;;;;;;5015589;28;20399;-74
2023/08/14 05:43:11;;;;;;;6.70;5.18;;;17.60;99.90;;;;;;5015425;28;20040;-75
2023/08/14 05:45:44;;;;;;;7.35;4.45;;;17.70;99.90;;;;;;5013441;28;20406;-74
2023/08/14 05:48:12;;;;;;;5.85;4.43;;;17.90;99.90;;;;;;5027950;28;20068;-75
2023/08/14 05:50:39;;;;;;;5.68;4.82;;;18.00;99.90;;;;;;5012618;28;20033;-75
2023/08/14 05:53:06;;;;;;;5.38;4.07;;;18.10;99.90;;;;;;5009704;28;20029;-75
2023/08/14 05:55:33;;;;;;;6.70;4.47;;;18.10;99.90;;;;;;5006813;28;20604;-75
2023/08/14 05:58:00;;;;;;;6.35;4.88;;;18.20;99.90;;;;;;5005747;28;20475;-74
2023/08/14 06:00:27;;;;;;;5.10;4.30;;;18.30;99.90;;;;;;5002658;28;20706;-74
2023/08/14 06:02:54;;;;;;;4.85;3.92;;;18.40;99.90;;;;;;5011505;28;20848;-76
2023/08/14 06:05:21;;;;;;;5.55;4.93;;;18.40;99.90;;;;;;5014481;28;20466;-77
2023/08/14 06:07:48;;;;;;;7.88;6.22;;;18.50;99.90;;;;;;5012867;28;21360;-76
2023/08/14 06:10:15;;;;;;;5.13;4.65;;;18.50;99.90;;;;;;4997681;28;20044;-76
2023/08/14 06:12:42;;;;;;;5.60;5.07;;;18.50;99.90;;;;;;5014262;28;20043;-77
2023/08/14 06:15:08;;;;;;;6.50;4.63;;;18.60;99.90;;;;;;5016664;28;20574;-79
2023/08/14 06:17:35;;;;;;;5.85;4.70;;;18.60;99.90;;;;;;5024196;28;20053;-76
2023/08/14 06:20:02;;;;;;;6.25;5.25;;;18.60;99.90;;;;;;5009126;28;20048;-78
2023/08/14 06:22:29;;;;;;;7.45;5.55;;;18.70;99.90;;;;;;5015067;28;20033;-78
2023/08/14 06:24:55;;;;;;;5.90;4.53;;;18.70;99.90;;;;;;5012657;28;20412;-78
2023/08/14 06:27:22;;;;;;;6.63;4.88;;;18.70;99.90;;;;;;5030592;28;21051;-76
2023/08/14 06:29:48;;;;;;;6.35;4.80;;;18.70;99.90;;;;;;4998787;28;20068;-78
2023/08/14 06:32:15;;;;;;;6.82;5.50;;;18.80;99.90;;;;;;5012195;28;20055;-78
2023/08/14 06:34:42;;;;;;;5.78;5.05;;;18.80;99.90;;;;;;4983612;28;20036;-77
2023/08/14 06:37:08;;;;;;;7.93;4.50;;;18.90;99.90;;;;;;5002306;28;20025;-77
2023/08/14 06:39:35;;;;;;;6.68;4.50;;;18.90;99.90;;;;;;5022261;28;20032;-80
2023/08/14 06:42:01;;;;;;;7.38;5.32;;;18.90;99.90;;;;;;5000268;28;20045;-77
2023/08/14 06:44:27;;;;;;;6.72;4.78;;;19.00;99.90;;;;;;4991503;28;20426;-78
2023/08/14 06:46:54;;;;;;;7.18;5.15;;;19.00;99.90;;;;;;4993572;28;20252;-76
2023/08/14 06:49:20;;;;;;;7.13;5.45;;;19.00;99.90;;;;;;5009909;28;20020;-75
2023/08/14 06:51:46;;;;;;;5.72;5.13;;;19.10;99.90;;;;;;5008898;28;20668;-76
2023/08/14 06:54:13;;;;;;;6.60;4.93;;;19.10;99.90;;;;;;5010738;28;20040;-76
2023/08/14 06:56:39;;;;;;;7.30;4.80;;;19.20;99.90;;;;;;4997088;28;20357;-76
2023/08/14 06:59:05;;;;;;;7.13;5.50;;;19.30;99.90;;;;;;5022229;28;20666;-77
2023/08/14 07:01:32;;;;;;;6.47;5.07;;;19.30;99.90;;;;;;4981687;28;20042;-76
2023/08/14 07:03:58;;;;;;;6.00;4.78;;;19.40;99.90;;;;;;5013305;28;20029;-75
2023/08/14 07:06:25;;;;;;;5.47;4.57;;;19.60;99.90;;;;;;4994627;28;20044;-74
2023/08/14 07:08:51;;;;;;;8.65;5.75;;;20.00;99.90;;;;;;5010579;28;20663;-76
2023/08/14 07:11:17;;;;;;;7.35;4.72;;;20.40;99.90;;;;;;4994895;28;20048;-77
2023/08/14 07:13:44;;;;;;;10.23;5.03;;;20.90;99.90;;;;;;5012704;28;20033;-75
2023/08/14 07:16:11;;;;;;;7.22;5.18;;;21.30;99.90;;;;;;5025710;28;20032;-74
2023/08/14 07:18:37;;;;;;;8.95;5.55;;;21.60;99.90;;;;;;5000309;28;20033;-76
2023/08/14 07:21:04;;;;;;;8.18;4.55;;;21.80;99.90;;;;;;5021443;28;20037;-75
2023/08/14 07:23:32;;;;;;;8.98;5.55;;;22.00;99.90;;;;;;5018490;28;20048;-73
2023/08/14 07:26:03;;;;;;;7.93;4.88;;;22.10;99.90;;;;;;4990136;28;20028;-74
2023/08/14 07:28:30;;;;;;;8.05;3.10;;;22.10;99.90;;;;;;4993692;28;20044;-75
2023/08/14 07:30:56;;;;;;;7.18;3.47;;;22.10;99.90;;;;;;5012988;28;20025;-76
2023/08/14 07:33:23;;;;;;;6.40;3.22;;;22.20;99.90;;;;;;5011392;28;20040;-74
2023/08/14 07:35:49;;;;;;;9.18;3.78;;;22.40;99.90;;;;;;4996054;28;20060;-75
2023/08/14 07:38:15;;;;;;;6.90;3.45;;;22.50;99.90;;;;;;5017120;28;20040;-74
2023/08/14 07:40:42;;;;;;;8.27;4.07;;;22.70;99.90;;;;;;5020644;28;20639;-82
2023/08/14 07:43:09;;;;;;;7.20;3.30;;;23.00;99.90;;;;;;4988040;28;20013;-73
2023/08/14 07:45:35;;;;;;;8.60;3.53;;;23.00;99.90;;;;;;5008824;28;20079;-73
2023/08/14 07:48:02;;;;;;;6.85;2.90;;;22.80;99.90;;;;;;5009371;28;20666;-72
2023/08/14 07:50:28;;;;;;;7.57;2.92;;;22.70;99.90;;;;;;4992298;28;20403;-73
2023/08/14 07:52:55;;;;;;;5.68;2.72;;;22.50;99.90;;;;;;4991895;28;20460;-74
2023/08/14 07:55:21;;;;;;;9.45;4.53;;;22.50;99.90;;;;;;5006695;28;20041;-73
2023/08/14 07:57:47;;;;;;;6.78;2.92;;;22.60;99.90;;;;;;4994610;28;21091;-73
2023/08/14 08:00:15;;;;;;;5.78;2.47;;;22.60;99.90;;;;;;5015036;28;20049;-73
2023/08/14 08:02:42;;;;;;;5.53;2.55;;;22.60;99.90;;;;;;5002860;28;20044;-73
2023/08/14 08:05:09;;;;;;;6.80;3.15;;;22.70;99.90;;;;;;5015979;28;20995;-73
2023/08/14 08:07:35;;;;;;;7.20;2.65;;;22.70;99.90;;;;;;5009573;28;20029;-73
2023/08/14 08:10:02;;;;;;;6.30;3.28;;;22.60;99.90;;;;;;4992019;28;20045;-74
2023/08/14 08:12:29;;;;;;;6.70;2.35;;;22.50;99.90;;;;;;5007599;28;20037;-73
2023/08/14 08:14:55;;;;;;;6.53;2.42;;;22.50;99.90;;;;;;4991004;28;20120;-74
2023/08/14 08:17:22;;;;;;;6.82;3.70;;;22.60;99.90;;;;;;5008946;28;20427;-75
2023/08/14 08:19:48;;;;;;;8.30;2.67;;;22.70;99.90;;;;;;5013015;28;20041;-74
2023/08/14 08:22:15;;;;;;;8.23;2.78;;;22.90;99.90;;;;;;5004481;28;20432;-75
2023/08/14 08:24:42;;;;;;;5.13;2.40;;;23.10;99.90;;;;;;5008976;28;20056;-80
2023/08/14 08:27:10;;;;;;;6.50;2.30;;;23.30;99.90;;;;;;5013102;28;20049;-79
2023/08/14 08:29:36;;;;;;;5.60;2.70;;;23.40;99.90;;;;;;5010353;28;20773;-73
2023/08/14 08:32:03;;;;;;;8.32;3.58;;;23.60;99.90;;;;;;4996881;28;20036;-82
2023/08/14 08:34:30;;;;;;;5.03;2.30;;;23.70;99.90;;;;;;4995154;28;20037;-77
2023/08/14 08:36:56;;;;;;;7.63;2.95;;;23.80;99.90;;;;;;5024830;28;20040;-74
2023/08/14 08:39:23;;;;;;;7.68;2.67;;;23.90;99.90;;;;;;4975662;28;20045;-75
2023/08/14 08:41:49;;;;;;;7.30;2.97;;;24.00;99.90;;;;;;5015230;28;20060;-75
2023/08/14 08:44:25;;;;;;;6.32;2.90;;;24.20;99.90;;;;;;5018538;28;21639;-76
2023/08/14 08:46:58;;;;;;;5.53;1.83;;;24.30;99.90;;;;;;5015720;28;20048;-75
2023/08/14 08:49:28;;;;;;;8.23;2.78;;;24.30;99.90;;;;;;5004757;28;20120;-74
2023/08/14 08:51:56;;;;;;;4.00;1.33;;;24.40;99.90;;;;;;4991628;28;21595;-76
2023/08/14 08:54:23;;;;;;;7.57;2.08;;;24.50;99.90;;;;;;5002605;28;20753;-76
2023/08/14 08:56:52;;;;;;;5.47;1.67;;;24.50;99.90;;;;;;5006173;28;20040;-76
2023/08/14 08:59:19;;;;;;;4.72;1.45;;;24.70;99.90;;;;;;5008782;28;20052;-77
2023/08/14 09:01:46;;;;;;;5.13;1.60;;;24.80;99.90;;;;;;4980171;28;20739;-77
2023/08/14 09:04:12;;;;;;;3.92;1.40;;;24.90;99.90;;;;;;5022302;28;20407;-77
2023/08/14 09:06:39;;;;;;;5.53;1.92;;;25.00;99.90;;;;;;5005740;28;20041;-77
2023/08/14 09:09:06;;;;;;;6.95;1.75;;;25.00;99.90;;;;;;5015794;28;20052;-77
2023/08/14 09:11:33;;;;;;;8.05;1.85;;;25.10;99.90;;;;;;5011523;28;20383;-77
2023/08/14 09:13:59;;;;;;;6.97;1.20;;;25.10;99.90;;;;;;4993375;28;20056;-76
2023/08/14 09:16:27;;;;;;;7.38;1.50;;;25.30;99.90;;;;;;5008812;28;20040;-75
2023/08/14 09:19:00;;;;;;;4.30;1.25;;;25.30;99.90;;;;;;4989871;28;20044;-75
2023/08/14 09:21:28;;;;;;;5.93;1.63;;;25.50;99.90;;;;;;4989519;28;22469;-76
2023/08/14 09:23:55;;;;;;;3.70;1.00;;;25.60;99.90;;;;;;5015514;28;20036;-78
2023/08/14 09:26:22;;;;;;;6.60;1.70;;;25.80;99.90;;;;;;5001550;28;20044;-75
2023/08/14 09:28:49;;;;;;;5.40;1.77;;;25.90;99.90;;;;;;5001761;28;20488;-78
2023/08/14 09:31:16;;;;;;;8.35;2.00;;;25.90;99.90;;;;;;5012191;28;20025;-77
2023/08/14 09:33:44;;;;;;;5.60;1.88;;;25.90;99.90;;;;;;4977462;28;20033;-79
2023/08/14 09:36:12;;;;;;;6.97;1.77;;;26.00;99.90;;;;;;4993169;28;20025;-76
2023/08/14 09:38:39;;;;;;;10.20;1.85;;;26.10;99.90;;;;;;4971885;28;20938;-77
2023/08/14 09:41:06;;;;;;;10.70;2.90;;;26.10;99.90;;;;;;5010344;28;20539;-78
2023/08/14 09:43:33;;;;;;;6.60;2.08;;;26.20;99.90;;;;;;4997870;28;20029;-79
2023/08/14 09:46:01;;;;;;;9.30;2.13;;;26.20;99.90;;;;;;5019860;28;20040;-79
2023/08/14 09:48:45;;;;;;;5.72;1.50;;;26.20;99.90;;;;;;5002936;28;20048;-79
2023/08/14 09:51:14;;;;;;;6.20;1.70;;;26.30;99.90;;;;;;5016954;28;20635;-79
2023/08/14 09:53:44;;;;;;;4.65;1.67;;;26.40;99.90;;;;;;4995527;28;20029;-75
2023/08/14 09:56:12;;;;;;;4.82;1.65;;;26.60;99.90;;;;;;5010765;28;20041;-77
2023/08/14 09:58:40;;;;;;;6.95;2.45;;;26.80;99.90;;;;;;5011289;28;20047;-80
2023/08/14 10:01:07;;;;;;;9.13;5.63;;;26.90;99.90;;;;;;4998794;28;20033;-77
2023/08/14 10:03:34;;;;;;;7.68;3.22;;;27.00;99.90;;;;;;5016140;28;20037;-79
2023/08/14 10:06:04;;;;;;;6.03;2.40;;;27.00;99.90;;;;;;5024107;28;20037;-83
2023/08/14 10:08:34;;;;;;;5.82;1.63;;;27.10;99.90;;;;;;5024384;28;20045;-78
2023/08/14 10:11:06;;;;;;;3.88;1.20;;;27.30;99.90;;;;;;5018241;28;20037;-81
2023/08/14 10:13:38;;;;;;;6.60;1.75;;;27.40;99.90;;;;;;5015147;28;20042;-78
2023/08/14 10:16:09;;;;;;;6.53;2.20;;;27.50;99.90;;;;;;5013531;28;20041;-73
2023/08/14 10:18:39;;;;;;;4.30;1.30;;;27.50;99.90;;;;;;5012350;28;20040;-78
2023/08/14 10:21:11;;;;;;;7.88;1.80;;;27.60;99.90;;;;;;4998341;28;20040;-77
2023/08/14 10:23:38;;;;;;;7.47;4.53;;;27.70;99.90;;;;;;5009419;28;20467;-78
2023/08/14 10:26:07;;;;;;;6.30;2.53;;;28.00;99.90;;;;;;5018233;28;20327;-80
2023/08/14 10:28:33;;;;;;;7.78;3.00;;;28.20;99.90;;;;;;5004985;28;20025;-75
2023/08/14 10:31:01;;;;;;;5.93;1.65;;;28.40;99.90;;;;;;5020054;28;20044;-82
2023/08/14 10:33:28;;;;;;;4.47;1.55;;;28.60;99.90;;;;;;5011346;28;20423;-77
2023/08/14 10:35:56;;;;;;;7.80;4.85;;;28.80;99.90;;;;;;4995171;28;20037;-78
2023/08/14 10:38:43;;;;;;;5.82;1.75;;;29.00;99.90;;;;;;5011419;28;20033;-76
2023/08/14 10:41:10;;;;;;;5.95;1.38;;;29.30;99.90;;;;;;5010337;28;20032;-76
2023/08/14 10:43:37;;;;;;;3.58;1.00;;;29.60;99.90;;;;;;4975544;28;20037;-76
2023/08/14 10:46:21;;;;;;;3.17;0.90;;;29.90;99.90;;;;;;5004265;28;20542;-77
2023/08/14 10:48:49;;;;;;;4.25;0.95;;;30.20;99.90;;;;;;5020472;28;20056;-73
2023/08/14 10:51:20;;;;;;;4.72;0.85;;;30.50;99.90;;;;;;5002095;28;20033;-77
2023/08/14 10:53:46;;;;;;;4.63;1.00;;;30.80;98.50;;;;;;4995024;28;21493;-75
2023/08/14 10:56:13;;;;;;;3.70;1.23;;;31.00;97.60;;;;;;5011254;28;20033;-75
2023/08/14 10:58:47;;;;;;;8.23;4.55;;;31.20;97.40;;;;;;5010573;28;20033;-77
2023/08/14 11:01:14;;;;;;;5.07;1.40;;;31.40;96.50;;;;;;5008832;28;20045;-74
2023/08/14 11:03:58;;;;;;;3.15;1.52;;;31.50;95.60;;;;;;5010382;28;20491;-77
2023/08/14 11:06:27;;;;;;;3.25;0.90;;;31.80;95.00;;;;;;5021802;28;20036;-76
2023/08/14 11:09:06;;;;;;;2.22;0.80;;;32.00;94.30;;;;;;5022816;28;20056;-76
2023/08/14 11:11:32;;;;;;;3.47;0.60;;;32.20;93.50;;;;;;5014153;28;20037;-75
2023/08/14 11:13:59;;;;;;;5.65;2.75;;;32.50;93.10;;;;;;5012989;28;20025;-75
2023/08/14 11:16:25;;;;;;;3.58;0.98;;;32.70;92.40;;;;;;4990451;28;20036;-73
2023/08/14 11:18:53;;;;;;;3.95;2.13;;;32.80;91.20;;;;;;4998505;28;20044;-74
2023/08/14 11:21:19;;;;;;;4.88;1.33;;;32.90;91.10;;;;;;4991450;28;20033;-74
2023/08/14 11:23:46;;;;;;;4.28;0.90;;;33.30;89.60;;;;;;5012320;28;20025;-76
2023/08/14 11:26:12;;;;;;;4.45;2.22;;;33.50;87.30;;;;;;5022186;28;20411;-76
2023/08/14 11:28:39;;;;;;;5.80;1.35;;;33.60;86.00;;;;;;5021780;28;20029;-75
2023/08/14 11:31:05;;;;;;;2.75;1.02;;;33.40;85.90;;;;;;5000367;28;20055;-75
2023/08/14 11:33:32;;;;;;;1.88;0.70;;;33.70;86.80;;;;;;5014101;28;20470;-74
2023/08/14 11:35:58;;;;;;;2.22;0.80;;;34.20;86.30;;;;;;5016258;28;20462;-76
2023/08/14 11:38:24;;;;;;;5.63;1.00;;;34.60;84.70;;;;;;5012474;28;20040;-76
2023/08/14 11:40:51;;;;;;;3.50;0.70;;;35.00;83.60;;;;;;5014867;28;20029;-74
2023/08/14 11:43:18;;;;;;;4.30;0.80;;;35.10;79.10;;;;;;4980020;28;20495;-71
2023/08/14 11:45:44;;;;;;;2.45;0.70;;;35.20;79.40;;;;;;5016483;28;20504;-75
2023/08/14 11:48:11;;;;;;;4.50;0.98;;;35.40;78.40;;;;;;5020676;28;20056;-74
2023/08/14 11:50:37;;;;;;;2.47;0.75;;;35.40;76.20;;;;;;5023438;28;20028;-76
2023/08/14 11:53:03;;;;;;;3.88;1.10;;;35.50;76.50;;;;;;5016381;28;20031;-73
2023/08/14 11:55:31;;;;;;;2.35;0.73;;;35.60;75.30;;;;;;5014822;28;20036;-73
2023/08/14 11:58:00;;;;;;;2.50;0.68;;;35.70;74.80;;;;;;4992721;28;20037;-75
2023/08/14 12:00:27;;;;;;;4.40;0.70;;;36.00;74.70;;;;;;5013066;28;20039;-76
2023/08/14 12:02:53;;;;;;;2.20;0.60;;;36.30;73.40;;;;;;5013557;28;20036;-73
2023/08/14 12:05:20;;;;;;;2.60;0.70;;;36.40;72.70;;;;;;5011116;28;20049;-76
2023/08/14 12:07:47;;;;;;;2.70;0.90;;;36.70;71.40;;;;;;5016742;28;20021;-77
2023/08/14 12:10:16;;;;;;;3.95;0.90;;;36.90;70.30;;;;;;5006228;28;20044;-76
2023/08/14 12:12:43;;;;;;;3.67;0.93;;;37.20;70.10;;;;;;5021229;28;20371;-77
2023/08/14 12:15:10;;;;;;;3.72;0.80;;;37.50;69.70;;;;;;5012964;28;20507;-75
2023/08/14 12:17:42;;;;;;;3.70;1.00;;;37.80;68.50;;;;;;5010335;28;20695;-77
2023/08/14 12:20:10;;;;;;;3.53;0.75;;;38.10;68.00;;;;;;4974202;28;20570;-75
2023/08/14 12:22:36;;;;;;;4.85;0.90;;;38.50;65.90;;;;;;5011911;28;20041;-76
2023/08/14 12:25:08;;;;;;;4.30;0.90;;;38.70;65.30;;;;;;5009489;28;20500;-73
2023/08/14 12:27:35;;;;;;;4.43;2.78;;;38.70;64.50;;;;;;5008186;28;20479;-74
2023/08/14 12:30:02;;;;;;;3.63;1.08;;;38.70;64.00;;;;;;5003952;28;20032;-76
2023/08/14 12:32:29;;;;;;;4.82;1.60;;;38.60;63.40;;;;;;5019830;28;20037;-75
2023/08/14 12:34:55;;;;;;;22.88;2.15;;;38.50;62.60;;;;;;4999196;28;20041;-72
2023/08/14 12:37:22;;;;;;;4.10;0.93;;;38.60;62.60;;;;;;5011148;28;20900;-73
2023/08/14 12:39:55;;;;;;;2.42;0.80;;;38.80;62.30;;;;;;5010331;28;20025;-73
2023/08/14 12:42:22;;;;;;;3.30;0.60;;;39.10;61.80;;;;;;4990018;28;20041;-73
2023/08/14 12:44:52;;;;;;;2.30;0.70;;;39.30;60.30;;;;;;5013656;28;20032;-74
2023/08/14 12:47:19;;;;;;;3.38;0.80;;;39.50;60.00;;;;;;4993803;28;20375;-72